Terminal Aerodrome Forecast
Issued by NWS

Home | Current Version | Previous Version | Text Only | Print | Product List | Glossary On
Versions: 1 2 3 4 5 6 7 8 9 10 11 12 13 14 15 16 17 18 19
000
FTUS45 KBOI 241728
TAFTWF
TAF
KTWF 241728Z 2418/2518 24020G30KT P6SM BKN035
     FM250100 19011KT P6SM FEW050 SCT180=

USA.gov is the U.S. government's official web portal to all federal, state and local government web resources and services.